createdAt,value
2019-03-12T00:01:57.091Z,10.07
2019-03-12T00:04:27.850Z,12.17
2019-03-12T00:06:58.841Z,11.43
2019-03-12T00:09:29.582Z,12.27
2019-03-12T00:12:00.265Z,11.43
2019-03-12T00:14:30.932Z,10.70
2019-03-12T00:17:02.176Z,10.90
2019-03-12T00:19:32.809Z,11.00
2019-03-12T00:22:04.370Z,11.53
2019-03-12T00:24:34.991Z,11.27
2019-03-12T00:27:06.473Z,11.47
2019-03-12T00:29:37.150Z,10.20
2019-03-12T00:32:07.825Z,11.27
2019-03-12T00:34:38.494Z,9.77
2019-03-12T00:37:09.131Z,9.80
2019-03-12T00:39:40.755Z,10.03
2019-03-12T00:42:11.427Z,10.17
2019-03-12T00:44:42.084Z,10.10
2019-03-12T00:47:12.720Z,9.93
2019-03-12T00:49:45.504Z,10.70
2019-03-12T00:52:16.139Z,10.37
2019-03-12T00:54:46.815Z,9.27
2019-03-12T00:57:17.457Z,10.57
2019-03-12T00:59:48.108Z,10.33
2019-03-12T01:02:18.753Z,10.30
2019-03-12T01:04:49.416Z,10.77
2019-03-12T01:07:20.103Z,10.33
2019-03-12T01:09:51.392Z,11.33
2019-03-12T01:12:22.107Z,8.50
2019-03-12T01:14:52.743Z,10.27
2019-03-12T01:17:23.421Z,10.60
2019-03-12T01:19:54.217Z,9.20
2019-03-12T01:22:24.948Z,9.73
2019-03-12T01:24:55.727Z,8.93
2019-03-12T01:27:28.783Z,9.70
2019-03-12T01:29:59.437Z,9.30
2019-03-12T01:32:30.117Z,9.90
2019-03-12T01:35:00.774Z,10.37
2019-03-12T01:37:31.410Z,10.17
2019-03-12T01:40:02.097Z,10.40
2019-03-12T01:42:32.756Z,9.77
2019-03-12T01:45:03.430Z,10.87
2019-03-12T01:47:34.114Z,11.50
2019-03-12T01:50:04.996Z,10.07
2019-03-12T01:52:35.689Z,11.43
2019-03-12T01:55:08.345Z,10.83
2019-03-12T01:57:39.818Z,10.13
2019-03-12T02:00:14.223Z,11.17
2019-03-12T02:02:44.890Z,11.77
2019-03-12T02:05:15.689Z,11.40
2019-03-12T02:07:46.561Z,11.20
2019-03-12T02:10:17.727Z,11.53
2019-03-12T02:12:48.425Z,10.47
2019-03-12T02:15:19.075Z,11.00
2019-03-12T02:17:49.854Z,11.77
2019-03-12T02:20:20.900Z,11.93
2019-03-12T02:22:51.593Z,12.40
2019-03-12T02:25:22.298Z,12.50
2019-03-12T02:27:53.388Z,12.97
2019-03-12T02:30:24.107Z,12.83
2019-03-12T02:32:54.835Z,13.90
2019-03-12T02:35:25.511Z,15.43
2019-03-12T02:37:56.288Z,15.67
2019-03-12T02:40:26.986Z,14.80
2019-03-12T02:42:57.962Z,14.93
2019-03-12T02:45:28.639Z,14.83
2019-03-12T02:47:59.277Z,15.70
2019-03-12T02:50:30.000Z,15.07
2019-03-12T02:53:00.649Z,14.80
2019-03-12T02:55:31.307Z,13.17
2019-03-12T02:58:02.007Z,14.07
2019-03-12T03:00:32.708Z,14.67
2019-03-12T03:03:03.434Z,13.87
2019-03-12T03:05:37.848Z,13.80
2019-03-12T03:08:09.921Z,13.53
2019-03-12T03:10:40.609Z,14.50
2019-03-12T03:13:11.270Z,15.13
2019-03-12T03:15:44.846Z,14.87
2019-03-12T03:18:15.523Z,14.80
2019-03-12T03:20:46.253Z,14.33
2019-03-12T03:23:17.165Z,14.00
2019-03-12T03:25:47.863Z,13.47
2019-03-12T03:28:18.758Z,15.83
2019-03-12T03:30:49.478Z,16.67
2019-03-12T03:33:20.801Z,17.40
2019-03-12T03:35:51.477Z,15.30
2019-03-12T03:38:22.826Z,13.87
2019-03-12T03:40:53.528Z,15.23
2019-03-12T03:43:24.791Z,15.27
2019-03-12T03:45:56.515Z,16.77
2019-03-12T03:48:27.219Z,15.87
2019-03-12T03:50:57.984Z,17.00
2019-03-12T03:53:28.637Z,16.23
2019-03-12T03:55:59.298Z,16.73
2019-03-12T03:58:30.017Z,17.20
2019-03-12T04:01:00.962Z,18.20
2019-03-12T04:03:31.603Z,17.27
2019-03-12T04:06:02.287Z,18.00
2019-03-12T04:08:32.958Z,18.80
2019-03-12T04:11:03.614Z,18.47
2019-03-12T04:13:34.305Z,18.57
2019-03-12T04:16:05.044Z,17.07
2019-03-12T04:18:35.758Z,16.67
2019-03-12T04:21:06.472Z,17.20
2019-03-12T04:23:37.185Z,16.17
2019-03-12T04:26:07.943Z,15.83
2019-03-12T04:28:38.614Z,14.90
2019-03-12T04:31:09.325Z,16.07
2019-03-12T04:36:36.856Z,14.23
2019-03-12T04:39:08.350Z,21.00
2019-03-12T04:41:38.998Z,24.90
2019-03-12T04:44:09.647Z,25.47
2019-03-12T04:46:40.404Z,19.47
2019-03-12T04:49:11.096Z,28.60
2019-03-12T04:51:42.960Z,25.30
2019-03-12T04:54:13.724Z,25.27
2019-03-12T04:56:44.487Z,16.07
2019-03-12T04:59:15.151Z,19.77
2019-03-12T05:01:45.808Z,16.47
2019-03-12T05:04:16.472Z,17.83
2019-03-12T05:06:47.144Z,20.83
2019-03-12T05:09:18.574Z,17.93
2019-03-12T05:11:49.469Z,22.97
2019-03-12T05:14:36.415Z,24.37
2019-03-12T05:17:28.501Z,20.93
2019-03-12T05:19:59.200Z,18.27
2019-03-12T05:22:29.938Z,28.50
2019-03-12T05:25:00.883Z,25.73
2019-03-12T05:27:31.621Z,17.83
2019-03-12T05:30:02.307Z,17.03
2019-03-12T05:32:33.006Z,18.70
2019-03-12T05:35:03.679Z,18.30
2019-03-12T05:37:35.269Z,16.87
2019-03-12T05:40:06.432Z,20.17
2019-03-12T05:42:37.211Z,16.73
2019-03-12T05:45:10.001Z,15.40
2019-03-12T05:47:44.925Z,19.20
2019-03-12T05:50:16.688Z,16.53
2019-03-12T05:52:50.150Z,15.20
2019-03-12T05:55:23.755Z,15.70
2019-03-12T05:57:55.117Z,20.80
2019-03-12T06:00:28.006Z,18.17
2019-03-12T06:03:02.494Z,15.03
2019-03-12T06:05:33.198Z,21.00
2019-03-12T06:08:03.844Z,22.27
2019-03-12T06:10:36.315Z,15.97
2019-03-12T06:13:07.002Z,18.13
2019-03-12T06:15:39.646Z,27.40
2019-03-12T06:18:10.101Z,18.77
2019-03-12T06:20:40.772Z,19.33
2019-03-12T06:23:15.056Z,17.50
2019-03-12T06:25:44.683Z,21.83
2019-03-12T06:28:15.449Z,20.33
2019-03-12T06:31:01.487Z,19.77
2019-03-12T06:33:48.604Z,16.03
2019-03-12T06:36:36.279Z,22.67
2019-03-12T06:39:43.229Z,19.07
2019-03-12T06:42:18.985Z,18.70
2019-03-12T06:45:07.480Z,15.43
2019-03-12T06:47:59.672Z,13.37
2019-03-12T06:50:55.097Z,16.07
2019-03-12T06:53:38.253Z,15.00
2019-03-12T06:56:26.527Z,14.40
2019-03-12T06:59:15.138Z,13.37
2019-03-12T07:01:52.021Z,18.90
2019-03-12T07:04:47.728Z,18.90
2019-03-12T07:07:36.272Z,13.87
2019-03-12T07:10:27.534Z,15.90
2019-03-12T07:13:27.255Z,11.10
2019-03-12T07:16:15.860Z,13.07
2019-03-12T07:19:05.337Z,13.00
2019-03-12T07:22:13.191Z,12.30
2019-03-12T07:25:10.750Z,19.27
2019-03-12T07:28:07.362Z,21.33
2019-03-12T07:30:59.928Z,9.20
2019-03-12T07:33:40.469Z,8.77
2019-03-12T07:36:28.047Z,9.37
2019-03-12T07:39:16.320Z,8.63
2019-03-12T07:42:08.039Z,8.90
2019-03-12T07:45:00.621Z,7.60
2019-03-12T07:47:49.290Z,7.27
2019-03-12T07:50:29.619Z,7.43
2019-03-12T07:53:19.254Z,7.07
2019-03-12T07:56:00.334Z,6.50
2019-03-12T07:58:55.977Z,7.77
2019-03-12T08:01:34.091Z,7.37
2019-03-12T08:04:24.855Z,6.97
2019-03-12T08:07:04.665Z,6.20
2019-03-12T08:09:54.455Z,6.47
2019-03-12T08:12:46.972Z,5.20
2019-03-12T08:15:35.591Z,4.97
2019-03-12T08:18:16.172Z,5.50
2019-03-12T08:21:05.669Z,5.07
2019-03-12T08:24:00.966Z,4.10
2019-03-12T08:26:55.872Z,5.43
2019-03-12T08:29:51.246Z,4.73
2019-03-12T08:32:44.498Z,4.67
2019-03-12T08:35:23.276Z,4.73
2019-03-12T08:38:01.857Z,5.47
2019-03-12T08:40:52.322Z,5.50
2019-03-12T08:43:30.392Z,4.20
2019-03-12T08:46:22.251Z,4.40
2019-03-12T08:49:10.153Z,4.43
2019-03-12T08:52:00.674Z,3.97
2019-03-12T08:55:03.957Z,4.77
2019-03-12T08:57:54.367Z,4.53
2019-03-12T09:00:43.337Z,4.67
2019-03-12T09:03:35.686Z,4.57
2019-03-12T09:06:28.062Z,5.03
2019-03-12T09:09:17.205Z,5.57
2019-03-12T09:12:06.826Z,4.87
2019-03-12T09:15:00.768Z,5.33
2019-03-12T09:18:05.339Z,5.63
2019-03-12T09:20:58.301Z,5.20
2019-03-12T09:23:44.027Z,5.13
2019-03-12T09:26:30.812Z,5.27
2019-03-12T09:29:10.229Z,4.60
2019-03-12T09:31:53.685Z,4.60
2019-03-12T09:34:50.146Z,4.70
2019-03-12T09:37:45.941Z,4.33
2019-03-12T09:40:38.395Z,4.50
2019-03-12T09:43:43.172Z,4.30
2019-03-12T09:46:41.525Z,4.53
2019-03-12T09:49:27.689Z,4.33
2019-03-12T09:52:05.774Z,5.03
2019-03-12T09:54:45.468Z,4.60
2019-03-12T09:57:34.355Z,4.33
2019-03-12T10:00:23.186Z,4.77
2019-03-12T10:03:18.659Z,4.43
2019-03-12T10:06:14.017Z,4.30
2019-03-12T10:09:03.538Z,3.90
2019-03-12T10:11:51.720Z,3.90
2019-03-12T10:14:47.257Z,3.97
2019-03-12T10:17:52.100Z,4.30
2019-03-12T10:20:48.166Z,4.03
2019-03-12T10:23:40.648Z,4.53
2019-03-12T10:26:28.793Z,4.53
2019-03-12T10:29:15.158Z,4.53
2019-03-12T10:31:54.326Z,4.87
2019-03-12T10:34:35.468Z,5.73
2019-03-12T10:37:25.052Z,5.07
2019-03-12T10:40:29.018Z,5.70
2019-03-12T10:43:22.984Z,5.17
2019-03-12T10:46:11.009Z,5.07
2019-03-12T10:48:43.377Z,5.87
2019-03-12T10:51:13.998Z,6.23
2019-03-12T10:53:44.752Z,5.93
2019-03-12T10:56:15.402Z,5.10
2019-03-12T10:58:46.134Z,4.67
2019-03-12T11:01:16.780Z,4.70
2019-03-12T11:03:49.906Z,5.23
2019-03-12T11:06:20.543Z,3.13
2019-03-12T11:08:51.226Z,4.27
2019-03-12T11:11:22.525Z,3.33
2019-03-12T11:13:53.203Z,3.40
2019-03-12T11:16:23.845Z,3.73
2019-03-12T11:18:55.388Z,4.57
2019-03-12T11:21:27.040Z,4.83
2019-03-12T11:23:57.679Z,5.03
2019-03-12T11:26:28.417Z,4.47
2019-03-12T11:28:59.182Z,5.40
2019-03-12T11:31:30.020Z,4.67
2019-03-12T11:34:00.843Z,5.20
2019-03-12T11:36:31.681Z,5.27
2019-03-12T11:39:02.325Z,5.50
2019-03-12T11:41:33.011Z,5.23
2019-03-12T11:44:04.919Z,4.73
2019-03-12T11:46:42.909Z,4.27
2019-03-12T11:49:08.142Z,4.60
2019-03-12T11:51:39.353Z,4.50
2019-03-12T11:54:10.403Z,3.67
2019-03-12T11:56:42.529Z,3.30
2019-03-12T11:59:13.192Z,3.97
2019-03-12T12:01:44.746Z,3.97
2019-03-12T12:04:15.420Z,3.20
2019-03-12T12:06:46.211Z,3.60
2019-03-12T12:09:16.982Z,3.17
2019-03-12T12:11:47.560Z,2.97
2019-03-12T12:14:18.212Z,2.50
2019-03-12T12:16:48.871Z,2.20
2019-03-12T12:19:19.527Z,2.17
2019-03-12T12:21:50.211Z,2.97
2019-03-12T12:24:20.855Z,2.80
2019-03-12T12:26:51.488Z,2.60
2019-03-12T12:29:22.153Z,2.17
2019-03-12T12:31:52.809Z,1.70
2019-03-12T12:34:23.480Z,1.60
2019-03-12T12:36:55.220Z,2.10
2019-03-12T12:39:25.846Z,2.10
2019-03-12T12:41:56.494Z,2.40
2019-03-12T12:44:27.167Z,5.53
2019-03-12T12:46:57.803Z,2.00
2019-03-12T12:49:28.507Z,3.80
2019-03-12T12:51:59.372Z,3.13
2019-03-12T12:54:30.107Z,3.73
2019-03-12T12:57:00.766Z,4.60
2019-03-12T12:59:33.823Z,1.90
2019-03-12T13:02:06.493Z,1.90
2019-03-12T13:04:37.137Z,2.57
2019-03-12T13:07:07.797Z,1.70
2019-03-12T13:09:39.074Z,3.17
2019-03-12T13:12:09.757Z,1.57
2019-03-12T13:14:41.870Z,1.40
2019-03-12T13:17:12.689Z,1.47
2019-03-12T13:19:43.652Z,1.40
2019-03-12T13:22:14.449Z,1.10
2019-03-12T13:24:46.260Z,1.33
2019-03-12T13:27:16.999Z,1.30
2019-03-12T13:29:48.188Z,1.00
2019-03-12T13:32:20.939Z,1.53
2019-03-12T13:34:51.636Z,1.80
2019-03-12T13:37:22.283Z,1.50
2019-03-12T13:39:53.276Z,1.27
2019-03-12T13:42:24.064Z,1.30
2019-03-12T13:44:54.745Z,1.13
2019-03-12T13:47:28.784Z,1.20
2019-03-12T13:49:57.852Z,1.20
2019-03-12T13:52:28.732Z,1.60
2019-03-12T13:54:59.925Z,1.40
2019-03-12T13:57:30.630Z,1.40
2019-03-12T14:00:01.336Z,1.30
2019-03-12T14:02:31.398Z,1.80
2019-03-12T14:05:02.172Z,1.80
2019-03-12T14:07:32.878Z,1.67
2019-03-12T14:10:03.715Z,1.43
2019-03-12T14:12:34.385Z,1.03
2019-03-12T14:15:06.190Z,1.20
2019-03-12T14:17:36.919Z,2.43
2019-03-12T14:20:49.898Z,1.00
2019-03-12T14:23:30.663Z,1.10
2019-03-12T14:26:01.312Z,1.10
2019-03-12T14:28:31.962Z,1.00
2019-03-12T14:31:03.099Z,1.40
2019-03-12T14:33:34.335Z,1.63
2019-03-12T14:36:05.145Z,1.60
2019-03-12T14:38:35.813Z,1.40
2019-03-12T14:41:06.657Z,1.23
2019-03-12T14:43:37.545Z,1.43
2019-03-12T14:46:08.193Z,1.43
2019-03-12T14:48:54.211Z,1.57
2019-03-12T14:51:56.530Z,1.73
2019-03-12T14:54:27.237Z,1.30
2019-03-12T14:56:57.926Z,1.60
2019-03-12T14:59:28.625Z,1.83
2019-03-12T15:02:03.458Z,1.53
2019-03-12T15:04:35.010Z,2.20
2019-03-12T15:07:07.330Z,1.80
2019-03-12T15:09:38.754Z,2.07
2019-03-12T15:12:12.083Z,1.60
2019-03-12T15:14:47.298Z,1.40
2019-03-12T15:17:22.189Z,1.33
2019-03-12T15:19:55.237Z,1.20
2019-03-12T15:22:26.990Z,1.70
2019-03-12T15:24:58.496Z,1.90
2019-03-12T15:27:29.223Z,1.50
2019-03-12T15:29:59.862Z,1.50
2019-03-12T15:32:30.602Z,1.50
2019-03-12T15:35:01.224Z,1.63
2019-03-12T15:37:31.902Z,1.40
2019-03-12T15:40:02.687Z,1.50
2019-03-12T15:42:33.355Z,1.40
2019-03-12T15:45:06.616Z,1.40
2019-03-12T15:47:38.860Z,1.10
2019-03-12T15:50:10.635Z,1.40
2019-03-12T15:52:41.381Z,1.93
2019-03-12T15:55:12.867Z,1.90
2019-03-12T15:57:45.714Z,1.93
2019-03-12T16:00:18.782Z,1.40
2019-03-12T16:02:49.585Z,1.63
2019-03-12T16:05:20.252Z,1.30
2019-03-12T16:07:51.966Z,1.00
2019-03-12T16:10:22.827Z,1.27
2019-03-12T16:12:54.604Z,1.20
2019-03-12T16:15:25.323Z,1.60
2019-03-12T16:17:56.762Z,1.40
2019-03-12T16:20:27.418Z,1.30
2019-03-12T16:22:58.230Z,1.40
2019-03-12T16:25:28.909Z,1.57
2019-03-12T16:28:00.495Z,1.50
2019-03-12T16:30:31.166Z,1.40
2019-03-12T16:33:01.870Z,1.40
2019-03-12T16:35:32.591Z,1.40
2019-03-12T16:38:03.302Z,1.30
2019-03-12T16:40:33.931Z,1.60
2019-03-12T16:43:04.661Z,2.27
2019-03-12T16:45:35.297Z,1.50
2019-03-12T16:48:06.020Z,1.60
2019-03-12T16:50:36.737Z,1.53
2019-03-12T16:53:07.406Z,1.60
2019-03-12T16:55:38.218Z,3.17
2019-03-12T16:58:08.898Z,16.13
2019-03-12T17:00:40.501Z,15.37
2019-03-12T17:03:11.248Z,15.60
2019-03-12T17:05:41.924Z,19.33
2019-03-12T17:08:12.571Z,29.53
2019-03-12T17:10:54.791Z,10.70
2019-03-12T17:13:15.612Z,38.10
2019-03-12T17:15:46.293Z,22.37
2019-03-12T17:18:17.005Z,29.47
2019-03-12T17:20:47.616Z,31.70
2019-03-12T17:23:18.260Z,21.37
2019-03-12T17:25:49.052Z,18.00
2019-03-12T17:28:19.693Z,42.10
2019-03-12T17:30:51.602Z,9.40
2019-03-12T17:33:22.258Z,25.97
2019-03-12T17:35:54.469Z,34.60
2019-03-12T17:38:25.160Z,5.00
2019-03-12T17:40:55.912Z,15.37
2019-03-12T17:43:26.557Z,23.07
2019-03-12T17:45:58.236Z,15.33
2019-03-12T17:48:28.878Z,13.23
2019-03-12T17:50:59.868Z,21.93
2019-03-12T17:53:30.689Z,5.20
2019-03-12T17:56:01.401Z,25.57
2019-03-12T17:58:32.101Z,16.80
2019-03-12T18:01:02.820Z,29.37
2019-03-12T18:03:33.519Z,5.80
2019-03-12T18:06:04.529Z,19.07
2019-03-12T18:08:35.173Z,20.70
2019-03-12T18:11:06.392Z,8.87
2019-03-12T18:13:37.755Z,11.37
2019-03-12T18:16:08.914Z,22.67
2019-03-12T18:18:41.331Z,6.00
2019-03-12T18:21:12.432Z,4.17
2019-03-12T18:23:43.360Z,9.27
2019-03-12T18:26:14.594Z,14.83
2019-03-12T18:28:45.267Z,5.20
2019-03-12T18:31:15.982Z,6.83
2019-03-12T18:33:46.805Z,13.77
2019-03-12T18:36:17.579Z,20.03
2019-03-12T18:38:48.441Z,10.13
2019-03-12T18:41:19.063Z,10.63
2019-03-12T18:43:49.763Z,3.40
2019-03-12T18:46:20.548Z,5.73
2019-03-12T18:48:51.328Z,3.17
2019-03-12T18:51:22.085Z,3.20
2019-03-12T18:53:52.856Z,4.27
2019-03-12T18:56:23.640Z,4.03
2019-03-12T18:58:56.337Z,4.50
2019-03-12T19:01:28.587Z,2.80
2019-03-12T19:03:59.539Z,3.40
2019-03-12T19:06:30.385Z,8.40
2019-03-12T19:09:01.130Z,27.27
2019-03-12T19:11:32.478Z,11.60
2019-03-12T19:14:05.028Z,24.10
2019-03-12T19:16:35.826Z,21.13
2019-03-12T19:19:08.720Z,21.53
2019-03-12T19:21:41.197Z,48.83
2019-03-12T19:24:13.587Z,32.23
2019-03-12T19:26:44.569Z,16.17
2019-03-12T19:29:15.488Z,27.00
2019-03-12T19:32:09.140Z,36.77
2019-03-12T19:34:40.026Z,5.60
2019-03-12T19:37:11.096Z,6.60
2019-03-12T19:39:42.468Z,23.53
2019-03-12T19:42:13.951Z,22.53
2019-03-12T19:44:44.702Z,32.07
2019-03-12T19:47:15.581Z,43.50
2019-03-12T19:49:47.830Z,7.17
2019-03-12T19:52:18.658Z,14.47
2019-03-12T19:54:49.432Z,12.93
2019-03-12T19:57:20.838Z,7.17
2019-03-12T19:59:51.521Z,9.57
2019-03-12T20:02:22.464Z,18.70
2019-03-12T20:04:55.155Z,22.53
2019-03-12T20:07:26.032Z,8.07
2019-03-12T20:10:34.728Z,31.30
2019-03-12T20:13:58.976Z,16.03
2019-03-12T20:17:19.645Z,7.43
2019-03-12T20:20:48.955Z,8.00
2019-03-12T20:24:21.983Z,3.40
2019-03-12T20:28:00.824Z,6.23
2019-03-12T20:31:42.354Z,6.77
2019-03-12T20:35:28.128Z,6.47
2019-03-12T20:39:35.456Z,4.27
2019-03-12T20:43:30.650Z,5.70
2019-03-12T20:47:00.290Z,3.77
2019-03-12T20:51:00.433Z,4.77
2019-03-12T20:54:38.282Z,3.13
2019-03-12T20:58:10.637Z,2.67
2019-03-12T21:01:52.751Z,3.67
2019-03-12T21:05:29.839Z,2.40
2019-03-12T21:09:18.468Z,2.77
2019-03-12T21:12:43.493Z,3.70
2019-03-12T21:15:59.833Z,2.40
2019-03-12T21:19:36.477Z,2.57
2019-03-12T21:23:02.734Z,2.40
2019-03-12T21:26:06.340Z,2.97
2019-03-12T21:29:27.562Z,2.77
2019-03-12T21:31:59.407Z,2.73
2019-03-12T21:34:30.104Z,2.50
2019-03-12T21:37:01.045Z,2.70
2019-03-12T21:39:31.758Z,2.90
2019-03-12T21:42:02.426Z,3.10
2019-03-12T21:44:33.526Z,3.43
2019-03-12T21:47:04.863Z,2.90
2019-03-12T21:49:35.690Z,3.00
2019-03-12T21:52:06.835Z,3.30
2019-03-12T21:54:38.475Z,2.97
2019-03-12T21:57:09.131Z,2.90
2019-03-12T21:59:39.765Z,2.97
2019-03-12T22:02:11.722Z,2.83
2019-03-12T22:04:42.306Z,3.00
2019-03-12T22:07:12.975Z,3.07
2019-03-12T22:09:44.070Z,2.97
2019-03-12T22:12:14.868Z,2.60
2019-03-12T22:14:45.505Z,2.70
2019-03-12T22:17:16.467Z,2.53
2019-03-12T22:19:47.063Z,2.50
2019-03-12T22:22:28.421Z,2.77
2019-03-12T22:25:00.051Z,2.80
2019-03-12T22:27:30.766Z,2.90
2019-03-12T22:30:01.569Z,2.57
2019-03-12T22:32:32.165Z,2.97
2019-03-12T22:35:02.958Z,2.30
2019-03-12T22:37:41.344Z,2.53
2019-03-12T22:40:13.290Z,2.97
2019-03-12T22:42:46.580Z,2.73
2019-03-12T22:45:20.372Z,2.37
2019-03-12T22:47:51.985Z,2.47
2019-03-12T22:50:22.792Z,2.60
2019-03-12T22:52:53.555Z,2.53
2019-03-12T22:55:24.281Z,2.20
2019-03-12T22:57:55.460Z,2.10
2019-03-12T23:00:27.855Z,2.43
2019-03-12T23:02:58.632Z,2.87
2019-03-12T23:05:29.305Z,2.47
2019-03-12T23:08:00.014Z,2.80
2019-03-12T23:10:30.875Z,2.23
2019-03-12T23:13:01.730Z,2.40
2019-03-12T23:15:33.474Z,2.43
2019-03-12T23:18:04.292Z,2.63
2019-03-12T23:20:35.055Z,2.87
2019-03-12T23:23:05.841Z,2.53
2019-03-12T23:25:36.558Z,2.30
2019-03-12T23:28:07.318Z,2.20
2019-03-12T23:30:38.585Z,2.57
2019-03-12T23:33:09.314Z,2.67
2019-03-12T23:35:40.055Z,2.10
2019-03-12T23:38:10.774Z,2.90
2019-03-12T23:40:41.652Z,2.33
2019-03-12T23:43:12.359Z,2.40
2019-03-12T23:45:44.835Z,2.90
2019-03-12T23:48:15.564Z,2.17
2019-03-12T23:50:46.337Z,1.97
2019-03-12T23:53:17.087Z,2.20
2019-03-12T23:55:47.867Z,2.50
2019-03-12T23:58:18.541Z,1.93
